createdAt,value
2019-02-24T00:01:46.631Z,40.77
2019-02-24T00:04:15.447Z,47.07
2019-02-24T00:06:43.972Z,54.17
2019-02-24T00:09:13.404Z,48.93
2019-02-24T00:11:42.211Z,38.90
2019-02-24T00:14:12.427Z,37.67
2019-02-24T00:16:41.321Z,41.90
2019-02-24T00:19:09.923Z,38.30
2019-02-24T00:21:40.592Z,43.70
2019-02-24T00:24:08.936Z,38.43
2019-02-24T00:26:37.558Z,34.30
2019-02-24T00:29:06.214Z,34.97
2019-02-24T00:31:34.797Z,36.83
2019-02-24T00:34:03.398Z,35.17
2019-02-24T00:36:35.193Z,29.60
2019-02-24T00:39:04.555Z,30.40
2019-02-24T00:41:33.028Z,35.40
2019-02-24T00:44:01.517Z,26.13
2019-02-24T00:46:30.085Z,29.17
2019-02-24T00:48:58.673Z,30.97
2019-02-24T00:51:27.182Z,28.37
2019-02-24T00:53:56.028Z,29.63
2019-02-24T00:56:24.918Z,30.03
2019-02-24T00:58:53.483Z,31.77
2019-02-24T01:01:22.277Z,33.50
2019-02-24T01:03:50.743Z,25.70
2019-02-24T01:06:39.000Z,27.17
2019-02-24T01:09:07.720Z,26.67
2019-02-24T01:11:37.978Z,28.70
2019-02-24T01:14:06.641Z,23.80
2019-02-24T01:16:35.171Z,24.93
2019-02-24T01:19:03.678Z,28.73
2019-02-24T01:21:32.193Z,31.87
2019-02-24T01:24:00.968Z,31.60
2019-02-24T01:26:29.563Z,32.50
2019-02-24T01:28:59.381Z,31.00
2019-02-24T01:31:27.879Z,32.80
2019-02-24T01:33:56.504Z,28.67
2019-02-24T01:36:25.024Z,32.70
2019-02-24T01:38:53.478Z,34.13
2019-02-24T01:41:22.386Z,32.23
2019-02-24T01:43:50.839Z,28.87
2019-02-24T01:46:20.443Z,33.10
2019-02-24T01:48:54.744Z,31.93
2019-02-24T01:51:24.323Z,27.13
2019-02-24T01:53:52.855Z,26.10
2019-02-24T01:56:21.808Z,28.30
2019-02-24T01:58:50.414Z,24.40
2019-02-24T02:01:19.534Z,27.43
2019-02-24T02:03:48.110Z,29.80
2019-02-24T02:06:16.741Z,27.33
2019-02-24T02:08:45.658Z,27.60
2019-02-24T02:11:14.864Z,27.40
2019-02-24T02:13:43.473Z,25.70
2019-02-24T02:16:12.269Z,31.10
2019-02-24T02:18:40.872Z,32.40
2019-02-24T02:21:09.423Z,28.20
2019-02-24T02:23:38.067Z,30.20
2019-02-24T02:26:06.834Z,24.43
2019-02-24T02:28:43.611Z,31.23
2019-02-24T02:31:05.846Z,26.00
2019-02-24T02:33:37.545Z,24.53
2019-02-24T02:36:08.669Z,22.53
2019-02-24T02:38:37.332Z,30.37
2019-02-24T02:41:05.945Z,30.37
2019-02-24T02:43:34.421Z,26.27
2019-02-24T02:46:06.275Z,25.60
2019-02-24T02:48:34.822Z,25.83
2019-02-24T02:51:03.727Z,28.40
2019-02-24T02:53:32.567Z,24.50
2019-02-24T02:56:01.144Z,22.57
2019-02-24T02:58:29.760Z,22.93
2019-02-24T03:00:58.502Z,27.43
2019-02-24T03:03:27.015Z,26.70
2019-02-24T03:05:57.147Z,20.77
2019-02-24T03:08:27.672Z,19.83
2019-02-24T03:10:56.235Z,23.93
2019-02-24T03:13:24.731Z,18.10
2019-02-24T03:15:55.250Z,21.33
2019-02-24T03:18:23.954Z,21.50
2019-02-24T03:20:52.498Z,15.83
2019-02-24T03:23:21.483Z,23.27
2019-02-24T03:25:51.702Z,17.77
2019-02-24T03:28:20.169Z,16.03
2019-02-24T03:30:48.792Z,16.93
2019-02-24T03:33:17.553Z,19.33
2019-02-24T03:35:46.155Z,15.60
2019-02-24T03:38:14.593Z,17.90
2019-02-24T03:40:43.433Z,15.87
2019-02-24T03:43:12.081Z,17.30
2019-02-24T03:45:40.602Z,17.63
2019-02-24T03:48:09.153Z,13.50
2019-02-24T03:50:37.667Z,21.57
2019-02-24T03:53:06.184Z,20.10
2019-02-24T03:55:35.045Z,21.70
2019-02-24T03:58:05.026Z,19.40
2019-02-24T04:00:33.807Z,22.40
2019-02-24T04:03:02.324Z,18.50
2019-02-24T04:05:30.769Z,21.60
2019-02-24T04:07:59.208Z,21.50
2019-02-24T04:10:27.694Z,21.27
2019-02-24T04:12:56.274Z,17.93
2019-02-24T04:15:24.809Z,19.53
2019-02-24T04:17:53.296Z,19.93
2019-02-24T04:20:21.769Z,21.00
2019-02-24T04:22:50.409Z,20.30
2019-02-24T04:25:18.895Z,23.30
2019-02-24T04:27:47.420Z,17.77
2019-02-24T04:30:16.232Z,20.87
2019-02-24T04:32:44.972Z,22.77
2019-02-24T04:35:13.430Z,20.00
2019-02-24T04:37:41.905Z,21.33
2019-02-24T04:40:10.349Z,24.50
2019-02-24T04:42:38.935Z,22.80
2019-02-24T04:45:07.468Z,22.63
2019-02-24T04:47:36.046Z,22.47
2019-02-24T04:50:05.383Z,19.83
2019-02-24T04:52:33.845Z,21.23
2019-02-24T04:55:02.350Z,19.27
2019-02-24T04:57:30.808Z,20.03
2019-02-24T04:59:59.255Z,20.87
2019-02-24T05:02:27.731Z,29.80
2019-02-24T05:04:56.223Z,21.73
2019-02-24T05:07:24.699Z,22.07
2019-02-24T05:09:53.527Z,20.90
2019-02-24T05:12:22.015Z,19.43
2019-02-24T05:14:50.502Z,21.67
2019-02-24T05:17:18.992Z,25.57
2019-02-24T05:19:47.433Z,20.60
2019-02-24T05:22:15.926Z,22.13
2019-02-24T05:24:44.442Z,22.83
2019-02-24T05:27:12.970Z,25.93
2019-02-24T05:29:46.017Z,19.47
2019-02-24T05:32:11.959Z,23.63
2019-02-24T05:34:40.399Z,25.40
2019-02-24T05:37:09.133Z,23.00
2019-02-24T05:39:37.653Z,22.57
2019-02-24T05:42:06.152Z,21.60
2019-02-24T05:44:34.674Z,21.97
2019-02-24T05:47:03.119Z,21.90
2019-02-24T05:49:31.830Z,21.20
2019-02-24T05:52:00.565Z,22.20
2019-02-24T05:54:29.354Z,21.33
2019-02-24T05:56:57.839Z,21.53
2019-02-24T05:59:26.357Z,22.17
2019-02-24T06:01:54.812Z,22.97
2019-02-24T06:04:23.323Z,24.90
2019-02-24T06:06:52.036Z,20.93
2019-02-24T06:09:20.720Z,22.93
2019-02-24T06:11:49.451Z,23.47
2019-02-24T06:14:17.970Z,28.00
2019-02-24T06:16:46.464Z,25.20
2019-02-24T06:19:15.179Z,23.43
2019-02-24T06:21:43.674Z,23.70
2019-02-24T06:24:13.699Z,22.00
2019-02-24T06:26:42.163Z,22.53
2019-02-24T06:29:10.658Z,22.80
2019-02-24T06:31:39.153Z,23.00
2019-02-24T06:34:07.671Z,22.20
2019-02-24T06:36:36.155Z,23.07
2019-02-24T06:39:05.384Z,22.07
2019-02-24T06:41:34.108Z,23.53
2019-02-24T06:44:02.847Z,21.33
2019-02-24T06:46:31.688Z,21.67
2019-02-24T06:49:00.182Z,23.53
2019-02-24T06:51:28.649Z,23.17
2019-02-24T06:53:57.097Z,30.93
2019-02-24T06:56:25.531Z,25.27
2019-02-24T06:58:54.046Z,25.63
2019-02-24T07:01:22.497Z,21.57
2019-02-24T07:03:50.946Z,21.73
2019-02-24T07:06:19.387Z,21.60
2019-02-24T07:08:47.851Z,24.17
2019-02-24T07:11:16.567Z,22.33
2019-02-24T07:13:45.022Z,19.83
2019-02-24T07:16:13.460Z,20.10
2019-02-24T07:18:41.911Z,24.37
2019-02-24T07:21:10.358Z,22.70
2019-02-24T07:23:38.909Z,27.63
2019-02-24T07:26:07.359Z,24.23
2019-02-24T07:28:35.818Z,29.97
2019-02-24T07:31:04.510Z,38.73
2019-02-24T07:33:33.009Z,40.43
2019-02-24T07:36:01.523Z,43.00
2019-02-24T07:38:30.070Z,40.73
2019-02-24T07:40:58.666Z,39.13
2019-02-24T07:43:27.123Z,36.93
2019-02-24T07:45:55.841Z,34.70
2019-02-24T07:48:24.571Z,30.23
2019-02-24T07:50:53.023Z,33.47
2019-02-24T07:53:21.745Z,27.70
2019-02-24T07:55:50.277Z,26.97
2019-02-24T07:58:18.809Z,28.93
2019-02-24T08:00:47.286Z,27.77
2019-02-24T08:03:15.739Z,26.87
2019-02-24T08:05:44.527Z,26.83
2019-02-24T08:08:16.398Z,23.30
2019-02-24T08:10:43.915Z,25.50
2019-02-24T08:13:12.424Z,25.10
2019-02-24T08:15:40.865Z,22.33
2019-02-24T08:18:09.312Z,21.33
2019-02-24T08:20:37.901Z,21.43
2019-02-24T08:23:06.506Z,23.23
2019-02-24T08:25:35.021Z,26.40
2019-02-24T08:28:03.495Z,18.67
2019-02-24T08:30:40.989Z,19.43
2019-02-24T08:33:02.678Z,22.10
2019-02-24T08:35:31.476Z,24.20
2019-02-24T08:38:00.347Z,18.80
2019-02-24T08:40:29.076Z,16.27
2019-02-24T08:42:57.603Z,20.60
2019-02-24T08:45:26.082Z,18.40
2019-02-24T08:47:54.533Z,15.70
2019-02-24T08:50:22.995Z,18.63
2019-02-24T08:52:51.441Z,17.30
2019-02-24T08:55:19.913Z,15.17
2019-02-24T08:57:48.636Z,17.13
2019-02-24T09:00:17.372Z,15.10
2019-02-24T09:02:45.861Z,14.30
2019-02-24T09:05:14.316Z,14.77
2019-02-24T09:07:43.024Z,18.50
2019-02-24T09:10:11.716Z,14.80
2019-02-24T09:12:40.411Z,14.33
2019-02-24T09:15:12.617Z,12.77
2019-02-24T09:17:41.343Z,13.03
2019-02-24T09:20:11.699Z,12.70
2019-02-24T09:22:40.224Z,13.53
2019-02-24T09:25:09.103Z,14.80
2019-02-24T09:27:37.811Z,11.80
2019-02-24T09:30:13.390Z,13.13
2019-02-24T09:32:50.421Z,11.47
2019-02-24T09:35:19.339Z,11.57
2019-02-24T09:37:47.774Z,12.30
2019-02-24T09:40:16.495Z,13.27
2019-02-24T09:42:45.200Z,12.90
2019-02-24T09:45:13.904Z,10.87
2019-02-24T09:47:46.662Z,10.40
2019-02-24T09:50:12.784Z,12.13
2019-02-24T09:52:41.522Z,10.90
2019-02-24T09:55:10.493Z,10.90
2019-02-24T09:57:38.952Z,8.07
2019-02-24T10:00:12.577Z,8.93
2019-02-24T10:02:41.039Z,11.93
2019-02-24T10:05:09.615Z,10.30
2019-02-24T10:07:38.178Z,8.53
2019-02-24T10:13:06.086Z,8.20
2019-02-24T10:15:34.767Z,8.30
2019-02-24T10:18:03.238Z,9.73
2019-02-24T10:20:31.862Z,8.23
2019-02-24T10:23:00.323Z,9.83
2019-02-24T10:25:28.783Z,9.87
2019-02-24T10:27:57.515Z,11.23
2019-02-24T10:30:25.954Z,8.13
2019-02-24T10:32:54.745Z,9.57
2019-02-24T10:35:23.472Z,11.40
2019-02-24T10:37:52.067Z,12.17
2019-02-24T10:40:20.664Z,9.00
2019-02-24T10:42:49.201Z,12.50
2019-02-24T10:45:19.072Z,10.70
2019-02-24T10:47:47.587Z,8.80
2019-02-24T10:50:17.229Z,10.17
2019-02-24T10:52:46.046Z,10.23
2019-02-24T10:55:14.759Z,10.47
2019-02-24T10:57:43.338Z,9.30
2019-02-24T11:00:14.318Z,8.67
2019-02-24T11:02:43.198Z,10.00
2019-02-24T11:05:11.784Z,12.10
2019-02-24T11:07:40.245Z,11.03
2019-02-24T11:10:09.739Z,10.47
2019-02-24T11:12:38.256Z,7.80
2019-02-24T11:15:09.567Z,6.60
2019-02-24T11:17:38.159Z,8.30
2019-02-24T11:20:12.164Z,7.57
2019-02-24T11:22:40.689Z,7.40
2019-02-24T11:25:10.766Z,8.60
2019-02-24T11:27:39.243Z,8.03
2019-02-24T11:30:10.653Z,10.17
2019-02-24T11:32:39.381Z,7.27
2019-02-24T11:35:11.925Z,9.00
2019-02-24T11:37:40.424Z,7.33
2019-02-24T11:40:14.157Z,6.87
2019-02-24T11:42:42.616Z,8.00
2019-02-24T11:45:11.427Z,7.93
2019-02-24T11:47:40.138Z,6.70
2019-02-24T11:50:10.154Z,9.50
2019-02-24T11:52:38.943Z,6.33
2019-02-24T11:55:09.281Z,7.03
2019-02-24T11:57:38.107Z,7.37
2019-02-24T12:00:09.722Z,7.13
2019-02-24T12:02:38.222Z,6.00
2019-02-24T12:05:08.314Z,7.73
2019-02-24T12:07:36.780Z,7.37
2019-02-24T12:10:11.538Z,7.00
2019-02-24T12:12:40.010Z,10.63
2019-02-24T12:15:15.231Z,8.27
2019-02-24T12:17:43.806Z,7.10
2019-02-24T12:20:13.895Z,6.90
2019-02-24T12:25:29.965Z,8.43
2019-02-24T12:27:58.561Z,7.23
2019-02-24T12:30:27.459Z,7.20
2019-02-24T12:32:55.948Z,8.17
2019-02-24T12:35:24.451Z,10.57
2019-02-24T12:37:53.371Z,7.63
2019-02-24T12:40:22.202Z,6.40
2019-02-24T12:42:50.716Z,7.30
2019-02-24T12:45:19.289Z,7.33
2019-02-24T12:47:47.796Z,7.17
2019-02-24T12:50:17.919Z,8.73
2019-02-24T12:52:46.444Z,8.33
2019-02-24T12:55:14.931Z,8.67
2019-02-24T12:57:43.824Z,9.17
2019-02-24T13:00:21.468Z,8.40
2019-02-24T13:02:49.942Z,10.87
2019-02-24T13:05:18.750Z,8.17
2019-02-24T13:07:47.560Z,8.10
2019-02-24T13:10:17.313Z,7.57
2019-02-24T13:12:46.151Z,8.00
2019-02-24T13:15:15.069Z,6.33
2019-02-24T13:17:43.954Z,8.10
2019-02-24T13:20:13.135Z,6.90
2019-02-24T13:22:41.837Z,8.63
2019-02-24T13:25:14.388Z,6.30
2019-02-24T13:27:43.117Z,5.40
2019-02-24T13:30:14.254Z,7.57
2019-02-24T13:32:42.726Z,7.30
2019-02-24T13:35:11.479Z,5.43
2019-02-24T13:37:43.103Z,5.47
2019-02-24T13:40:13.743Z,5.13
2019-02-24T13:42:42.692Z,4.73
2019-02-24T13:45:14.440Z,8.20
2019-02-24T13:47:43.395Z,6.80
2019-02-24T13:50:12.092Z,5.90
2019-02-24T13:52:40.632Z,5.30
2019-02-24T13:55:11.480Z,4.50
2019-02-24T13:57:40.282Z,6.40
2019-02-24T14:00:12.358Z,6.17
2019-02-24T14:02:41.295Z,6.23
2019-02-24T14:05:13.496Z,5.90
2019-02-24T14:07:41.979Z,7.23
2019-02-24T14:10:14.431Z,6.60
2019-02-24T14:12:42.926Z,5.17
2019-02-24T14:15:15.834Z,5.97
2019-02-24T14:17:44.550Z,4.70
2019-02-24T14:20:15.091Z,6.53
2019-02-24T14:22:43.611Z,5.63
2019-02-24T14:25:13.300Z,5.83
2019-02-24T14:27:41.831Z,4.70
2019-02-24T14:30:17.902Z,4.53
2019-02-24T14:32:46.367Z,5.40
2019-02-24T14:35:20.050Z,7.00
2019-02-24T14:37:48.577Z,4.10
2019-02-24T14:40:17.042Z,4.73
2019-02-24T14:42:45.824Z,6.70
2019-02-24T14:45:18.947Z,5.63
2019-02-24T14:47:47.754Z,5.27
2019-02-24T14:50:16.459Z,8.67
2019-02-24T14:52:44.990Z,7.57
2019-02-24T14:55:14.553Z,4.43
2019-02-24T14:57:43.021Z,7.23
2019-02-24T15:00:19.658Z,8.10
2019-02-24T15:02:48.375Z,5.40
2019-02-24T15:05:17.070Z,5.10
2019-02-24T15:07:45.651Z,5.40
2019-02-24T15:10:22.892Z,3.97
2019-02-24T15:12:51.410Z,5.77
2019-02-24T15:15:32.887Z,7.70
2019-02-24T15:18:00.768Z,5.60
2019-02-24T15:20:29.263Z,5.17
2019-02-24T15:22:57.748Z,6.33
2019-02-24T15:25:26.457Z,6.27
2019-02-24T15:27:55.199Z,5.77
2019-02-24T15:30:32.243Z,4.40
2019-02-24T15:33:00.747Z,5.00
2019-02-24T15:35:29.378Z,5.30
2019-02-24T15:37:58.145Z,6.23
2019-02-24T15:40:26.736Z,7.03
2019-02-24T15:42:55.198Z,5.90
2019-02-24T15:45:24.014Z,13.20
2019-02-24T15:47:52.538Z,7.00
2019-02-24T15:50:21.187Z,5.57
2019-02-24T15:52:49.714Z,5.90
2019-02-24T15:55:18.577Z,5.67
2019-02-24T15:57:47.084Z,4.27
2019-02-24T16:00:19.960Z,5.50
2019-02-24T16:02:48.735Z,4.50
2019-02-24T16:05:17.291Z,5.30
2019-02-24T16:07:45.830Z,5.00
2019-02-24T16:10:21.622Z,4.57
2019-02-24T16:12:50.410Z,4.23
2019-02-24T16:15:24.538Z,6.60
2019-02-24T16:17:53.028Z,5.00
2019-02-24T16:20:26.746Z,4.97
2019-02-24T16:22:55.292Z,7.70
2019-02-24T16:25:24.100Z,4.73
2019-02-24T16:27:53.390Z,4.40
2019-02-24T16:30:21.852Z,3.43
2019-02-24T16:32:50.338Z,4.70
2019-02-24T16:35:19.138Z,4.77
2019-02-24T16:37:47.756Z,4.20
2019-02-24T16:40:18.595Z,4.20
2019-02-24T16:42:47.237Z,4.80
2019-02-24T16:45:16.439Z,5.23
2019-02-24T16:47:44.872Z,8.30
2019-02-24T16:50:24.143Z,6.80
2019-02-24T16:52:53.121Z,7.67
2019-02-24T16:55:21.973Z,5.30
2019-02-24T16:57:50.601Z,11.33
2019-02-24T17:00:27.660Z,7.97
2019-02-24T17:02:56.215Z,6.30
2019-02-24T17:05:24.769Z,6.40
2019-02-24T17:07:53.262Z,6.90
2019-02-24T17:10:26.684Z,6.97
2019-02-24T17:12:55.199Z,7.13
2019-02-24T17:15:23.647Z,9.17
2019-02-24T17:17:52.379Z,7.50
2019-02-24T17:20:22.171Z,6.07
2019-02-24T17:22:50.936Z,6.53
2019-02-24T17:25:19.682Z,6.50
2019-02-24T17:27:48.134Z,10.07
2019-02-24T17:30:17.127Z,6.27
2019-02-24T17:32:45.545Z,8.07
2019-02-24T17:35:14.231Z,7.00
2019-02-24T17:37:42.660Z,8.87
2019-02-24T17:40:19.602Z,7.17
2019-02-24T17:42:48.339Z,8.30
2019-02-24T17:45:16.861Z,12.33
2019-02-24T17:47:45.404Z,9.57
2019-02-24T17:50:17.520Z,7.83
2019-02-24T17:52:45.962Z,9.97
2019-02-24T17:55:16.028Z,14.50
2019-02-24T17:57:44.792Z,9.20
2019-02-24T18:00:19.883Z,10.50
2019-02-24T18:02:48.351Z,13.50
2019-02-24T18:05:17.074Z,15.20
2019-02-24T18:07:45.804Z,15.73
2019-02-24T18:10:14.318Z,20.83
2019-02-24T18:12:42.807Z,18.30
2019-02-24T18:15:12.776Z,20.10
2019-02-24T18:17:41.270Z,18.73
2019-02-24T18:20:21.421Z,15.73
2019-02-24T18:22:49.860Z,21.30
2019-02-24T18:25:18.306Z,19.63
2019-02-24T18:27:46.737Z,15.87
2019-02-24T18:30:18.287Z,16.63
2019-02-24T18:32:47.668Z,15.50
2019-02-24T18:35:16.436Z,17.43
2019-02-24T18:37:44.887Z,17.13
2019-02-24T18:40:14.267Z,13.93
2019-02-24T18:42:43.973Z,16.33
2019-02-24T18:45:14.036Z,16.93
2019-02-24T18:47:42.531Z,13.33
2019-02-24T18:50:19.216Z,13.47
2019-02-24T18:52:47.687Z,12.77
2019-02-24T18:55:16.209Z,15.90
2019-02-24T18:57:44.926Z,17.17
2019-02-24T19:00:21.020Z,11.73
2019-02-24T19:02:49.465Z,14.47
2019-02-24T19:05:18.079Z,14.97
2019-02-24T19:07:46.526Z,8.77
2019-02-24T19:10:18.062Z,13.67
2019-02-24T19:12:46.547Z,12.53
2019-02-24T19:15:19.243Z,12.43
2019-02-24T19:17:47.763Z,13.73
2019-02-24T19:20:21.672Z,13.23
2019-02-24T19:22:50.200Z,13.73
2019-02-24T19:25:18.798Z,13.67
2019-02-24T19:27:47.272Z,16.20
2019-02-24T19:30:17.818Z,13.27
2019-02-24T19:32:46.301Z,13.20
2019-02-24T19:35:17.140Z,14.43
2019-02-24T19:37:45.794Z,14.67
2019-02-24T19:40:16.674Z,11.00
2019-02-24T19:42:45.371Z,13.53
2019-02-24T19:45:16.610Z,11.87
2019-02-24T19:47:45.488Z,24.17
2019-02-24T19:50:15.675Z,15.13
2019-02-24T19:52:44.168Z,16.00
2019-02-24T19:55:15.027Z,17.27
2019-02-24T19:57:43.512Z,17.00
2019-02-24T20:00:24.932Z,10.30
2019-02-24T20:02:53.852Z,15.43
2019-02-24T20:05:22.402Z,18.87
2019-02-24T20:07:50.879Z,15.80
2019-02-24T20:10:24.386Z,13.33
2019-02-24T20:12:52.991Z,12.20
2019-02-24T20:15:21.480Z,11.87
2019-02-24T20:17:49.923Z,17.90
2019-02-24T20:20:18.909Z,11.30
2019-02-24T20:22:47.707Z,10.80
2019-02-24T20:25:23.110Z,12.43
2019-02-24T20:27:51.881Z,12.17
2019-02-24T20:30:28.590Z,14.00
2019-02-24T20:32:57.283Z,7.70
2019-02-24T20:35:25.725Z,8.80
2019-02-24T20:37:54.215Z,9.33
2019-02-24T20:40:22.674Z,9.37
2019-02-24T20:42:51.108Z,16.93
2019-02-24T20:45:20.971Z,12.60
2019-02-24T20:47:49.731Z,11.20
2019-02-24T20:50:23.769Z,8.13
2019-02-24T20:52:52.191Z,9.67
2019-02-24T20:55:20.665Z,10.43
2019-02-24T20:57:52.037Z,7.83
2019-02-24T21:00:26.413Z,7.53
2019-02-24T21:02:54.866Z,8.37
2019-02-24T21:05:23.315Z,9.40
2019-02-24T21:07:52.014Z,12.40
2019-02-24T21:10:20.489Z,11.60
2019-02-24T21:12:49.208Z,12.57
2019-02-24T21:15:18.423Z,14.00
2019-02-24T21:17:46.867Z,16.20
2019-02-24T21:20:21.153Z,13.10
2019-02-24T21:22:50.604Z,18.17
2019-02-24T21:25:19.296Z,16.00
2019-02-24T21:27:48.088Z,13.83
2019-02-24T21:30:17.985Z,14.00
2019-02-24T21:32:46.424Z,19.37
2019-02-24T21:35:17.116Z,16.63
2019-02-24T21:37:45.534Z,14.97
2019-02-24T21:40:20.443Z,15.47
2019-02-24T21:42:48.941Z,14.00
2019-02-24T21:45:25.230Z,12.90
2019-02-24T21:47:53.659Z,8.90
2019-02-24T21:50:22.102Z,9.10
2019-02-24T21:52:50.579Z,17.03
2019-02-24T21:55:19.322Z,14.83
2019-02-24T21:57:48.058Z,10.77
2019-02-24T22:00:19.106Z,10.00
2019-02-24T22:02:47.572Z,11.00
2019-02-24T22:05:16.200Z,9.13
2019-02-24T22:07:45.437Z,11.97
2019-02-24T22:10:15.302Z,10.77
2019-02-24T22:12:43.767Z,9.10
2019-02-24T22:15:18.201Z,11.13
2019-02-24T22:17:46.700Z,9.60
2019-02-24T22:20:16.079Z,7.50
2019-02-24T22:22:44.960Z,8.57
2019-02-24T22:25:14.583Z,7.77
2019-02-24T22:27:43.262Z,7.27
2019-02-24T22:30:19.672Z,9.53
2019-02-24T22:32:48.400Z,8.90
2019-02-24T22:35:17.260Z,7.47
2019-02-24T22:37:45.831Z,8.00
2019-02-24T22:40:16.820Z,9.73
2019-02-24T22:42:45.960Z,8.77
2019-02-24T22:45:23.398Z,9.90
2019-02-24T22:47:51.850Z,9.00
2019-02-24T22:50:20.277Z,8.60
2019-02-24T22:52:49.005Z,10.13
2019-02-24T22:55:18.584Z,7.23
2019-02-24T22:57:47.379Z,10.70
2019-02-24T23:00:53.057Z,8.57
2019-02-24T23:03:23.879Z,9.97
2019-02-24T23:05:52.722Z,10.03
2019-02-24T23:08:21.185Z,11.83
2019-02-24T23:10:49.638Z,12.20
2019-02-24T23:13:18.372Z,12.13
2019-02-24T23:15:46.896Z,12.73
2019-02-24T23:18:15.358Z,12.60
2019-02-24T23:20:43.805Z,11.50
2019-02-24T23:23:12.263Z,12.80
2019-02-24T23:25:40.962Z,15.27
2019-02-24T23:28:09.395Z,18.30
2019-02-24T23:30:37.851Z,18.60
2019-02-24T23:33:07.619Z,19.17
2019-02-24T23:35:36.362Z,23.60
2019-02-24T23:38:05.043Z,33.60
2019-02-24T23:40:33.767Z,17.47
2019-02-24T23:43:02.275Z,26.60
2019-02-24T23:45:30.716Z,21.93
2019-02-24T23:47:59.172Z,17.60
2019-02-24T23:50:27.675Z,18.97
2019-02-24T23:52:56.119Z,21.37
2019-02-24T23:55:24.571Z,18.10
2019-02-24T23:57:53.292Z,23.00
